Time;durP1;ratioP1;P1;durP2;ratioP2;P2;SDS_P1;SDS_P2;PMS_P1;PMS_P2;Temp;Humidity;BMP_temperature;BMP_pressure;BME280_temperature;BME280_humidity;BME280_pressure;Samples;Min_cycle;Max_cycle;Signal;HPM_P1;HPM_P2
2022/06/21 00:12:12;231242.00;0.77;399.69;71913.00;0.24;125.07;;;;;20.10;1.00;;;;;;2286161;40;3508;-86
2022/06/21 00:14:40;171212.00;0.57;296.35;77463.00;0.26;134.65;;;;;20.00;1.00;;;;;;2276651;61;997;-86
2022/06/21 00:17:12;175167.00;0.58;303.17;69394.00;0.23;120.71;;;;;19.90;1.00;;;;;;2283034;55;3764;-86
2022/06/21 00:19:41;338581.00;1.13;584.23;76027.00;0.25;132.17;;;;;19.70;1.00;;;;;;2272514;61;1010;-90
2022/06/21 00:22:12;260216.00;0.87;449.52;69602.00;0.23;121.07;;;;;19.70;1.00;;;;;;2272461;61;1613;-86
2022/06/21 00:24:39;359293.00;1.20;619.83;75956.00;0.25;132.05;;;;;19.50;1.00;;;;;;2272315;61;1049;-86
2022/06/21 00:27:13;394027.00;1.31;679.54;74032.00;0.25;128.73;;;;;19.30;1.00;;;;;;2272588;61;1239;-89
2022/06/21 00:29:41;256476.00;0.85;443.09;70037.00;0.23;121.82;;;;;19.30;1.00;;;;;;2272591;61;1072;-88
2022/06/21 00:32:13;448494.00;1.49;773.19;78685.00;0.26;136.77;;;;;19.40;1.00;;;;;;2288257;40;3631;-87
2022/06/21 00:37:16;1304255.00;4.35;2279.89;178772.00;0.60;309.37;;;;;19.50;1.00;;;;;;2280885;61;1427;-88
2022/06/21 00:44:47;327357.00;1.09;564.94;66535.00;0.22;115.77;;;;;19.30;1.00;;;;;;2330154;40;3481;-87
2022/06/21 00:47:19;199578.00;0.67;345.20;80480.00;0.27;139.87;;;;;19.10;1.00;;;;;;2275960;61;1335;-88
2022/06/21 00:59:47;59896.00;0.20;104.30;0.00;0.00;0.62;;;;;18.80;1.00;;;;;;2277916;61;1232;-87
2022/06/21 01:07:13;224640.00;0.75;388.33;0.00;0.00;0.62;;;;;18.80;1.00;;;;;;2279174;55;3657;-87
2022/06/21 01:09:47;237206.00;0.79;409.95;0.00;0.00;0.62;;;;;18.90;1.00;;;;;;2295602;40;3581;-88
2022/06/21 01:14:50;248818.00;0.83;429.92;0.00;0.00;0.62;;;;;20.00;1.00;;;;;;2277979;61;1293;-90
2022/06/21 01:17:19;166284.00;0.55;287.87;0.00;0.00;0.62;;;;;20.30;1.00;;;;;;2275475;61;1351;-87
2022/06/21 01:19:49;55260.00;0.18;96.28;0.00;0.00;0.62;;;;;20.40;1.00;;;;;;2272269;61;1634;-88
2022/06/21 01:25:05;56067.00;0.19;97.68;0.00;0.00;0.62;;;;;19.90;1.00;;;;;;2278427;61;1408;-90
2022/06/21 01:27:33;11899.00;0.04;21.24;0.00;0.00;0.62;;;;;19.40;1.00;;;;;;2279985;40;3707;-87
2022/06/21 01:34:59;606062.00;2.02;1044.69;43001.00;0.14;75.08;;;;;19.30;1.00;;;;;;2278949;61;1312;-87
2022/06/21 01:37:31;101056.00;0.34;175.39;0.00;0.00;0.62;;;;;19.50;1.00;;;;;;2275655;61;1637;-88
2022/06/21 01:40:06;213630.00;0.71;369.38;0.00;0.00;0.62;;;;;19.70;1.00;;;;;;2273046;61;398;-87
2022/06/21 01:45:12;167719.00;0.56;290.34;0.00;0.00;0.62;;;;;19.70;1.00;;;;;;2282100;61;1422;-87
2022/06/21 01:47:45;61342.00;0.20;106.80;0.00;0.00;0.62;;;;;19.50;1.00;;;;;;2278501;61;1457;-87
2022/06/21 01:50:12;181536.00;0.61;314.13;0.00;0.00;0.62;;;;;19.20;1.00;;;;;;2276118;61;1638;-87
2022/06/21 01:57:40;310807.00;1.04;536.50;0.00;0.00;0.62;;;;;19.40;1.00;;;;;;2276647;61;1324;-88
2022/06/21 02:00:09;361331.00;1.20;623.34;0.00;0.00;0.62;;;;;19.60;1.00;;;;;;2291744;40;3632;-86
2022/06/21 02:05:12;493491.00;1.64;850.62;0.00;0.00;0.62;;;;;19.60;1.00;;;;;;1570005;40;3418;-88
2022/06/21 02:17:43;124921.00;0.42;216.57;0.00;0.00;0.62;;;;;20.20;1.00;;;;;;2285527;40;3500;-88
2022/06/21 02:22:38;619072.00;2.06;1067.16;0.00;0.00;0.62;;;;;20.40;1.00;;;;;;2279509;55;3637;-87
2022/06/21 02:30:17;201652.00;0.67;348.77;0.00;0.00;0.62;;;;;20.80;1.00;;;;;;2282109;60;1331;-87
2022/06/21 02:32:50;144952.00;0.48;251.11;0.00;0.00;0.62;;;;;20.40;1.00;;;;;;2306284;55;3579;-89
2022/06/21 02:35:25;912905.00;3.04;1578.80;182676.00;0.61;316.10;;;;;20.40;1.00;;;;;;2294221;40;3617;-88
2022/06/21 02:40:25;49574.00;0.17;86.45;0.00;0.00;0.62;;;;;19.90;1.00;;;;;;2288704;55;3679;-89
2022/06/21 02:45:34;370292.00;1.23;638.74;0.00;0.00;0.62;;;;;19.30;1.00;;;;;;2279608;40;3524;-87
2022/06/21 02:53:15;271645.00;0.91;469.17;0.00;0.00;0.62;;;;;19.00;1.00;;;;;;2307114;55;3601;-87
2022/06/21 02:58:18;429456.00;1.43;740.45;0.00;0.00;0.62;;;;;18.40;1.00;;;;;;2303224;40;3542;-88
2022/06/21 03:08:17;775654.00;2.59;1338.70;13958.00;0.05;24.81;;;;;18.60;1.00;;;;;;2279161;60;1419;-88
2022/06/21 03:18:16;1249393.00;4.16;2179.78;95137.00;0.32;165.18;;;;;19.10;1.00;;;;;;2279918;60;1407;-87
2022/06/21 03:28:27;1148581.00;3.83;1997.53;80509.00;0.27;139.92;;;;;19.60;1.00;;;;;;2280056;60;1273;-89
2022/06/21 03:31:02;595979.00;1.99;1027.28;77053.00;0.26;133.95;;;;;19.80;1.00;;;;;;2295334;39;3676;-87
2022/06/21 03:36:00;1136324.00;3.79;1975.51;80291.00;0.27;139.54;;;;;19.80;1.00;;;;;;2282355;60;1402;-88
2022/06/21 03:38:28;1173729.00;3.91;2042.79;89646.00;0.30;155.70;;;;;20.10;1.00;;;;;;2277716;60;1415;-87
2022/06/21 03:43:30;921487.00;3.07;1593.89;94139.00;0.31;163.45;;;;;20.60;1.00;;;;;;2282786;60;1212;-87
2022/06/21 03:46:01;514203.00;1.71;886.28;67778.00;0.23;117.92;;;;;20.60;1.00;;;;;;2280980;60;943;-87
2022/06/21 03:48:35;323220.00;1.08;557.83;102600.00;0.34;178.06;;;;;20.50;1.00;;;;;;2277783;60;1441;-88
2022/06/21 03:51:08;286802.00;0.96;495.23;78198.00;0.26;135.92;;;;;20.70;1.00;;;;;;2276898;61;1031;-86
2022/06/21 03:53:40;304950.00;1.02;526.43;74136.00;0.25;128.91;;;;;20.70;1.00;;;;;;2276837;61;2006;-87
2022/06/21 03:56:16;381562.00;1.27;658.11;72511.00;0.24;126.10;;;;;20.60;1.00;;;;;;2276781;61;1023;-87
2022/06/21 03:58:55;262205.00;0.87;452.94;64323.00;0.21;111.95;;;;;20.40;1.00;;;;;;2276723;61;1353;-86
2022/06/21 04:01:29;171664.00;0.57;297.13;69200.00;0.23;120.38;;;;;20.30;1.00;;;;;;2276795;61;1087;-86
2022/06/21 04:04:02;203366.00;0.68;351.72;73639.00;0.25;128.05;;;;;20.20;1.00;;;;;;2276766;61;1101;-87
2022/06/21 04:06:34;325307.00;1.08;561.42;82543.00;0.28;143.43;;;;;20.00;1.00;;;;;;2276813;61;1042;-86
2022/06/21 04:09:06;98683.00;0.33;171.30;0.00;0.00;0.62;;;;;19.40;1.00;;;;;;2276663;61;1352;-87
2022/06/21 04:11:42;0.00;0.00;0.62;0.00;0.00;0.62;;;;;19.50;1.00;;;;;;2276722;61;1015;-86
2022/06/21 04:14:17;111340.00;0.37;193.14;0.00;0.00;0.62;;;;;19.60;1.00;;;;;;2276662;61;1993;-87
2022/06/21 04:16:53;159316.00;0.53;275.86;0.00;0.00;0.62;;;;;19.40;1.00;;;;;;2276687;61;1470;-86
2022/06/21 04:19:29;34961.00;0.12;61.17;0.00;0.00;0.62;;;;;19.20;1.00;;;;;;2306702;56;3775;-88
2022/06/21 04:22:04;1236717.00;4.12;2156.75;207296.00;0.69;358.48;;;;;18.60;1.00;;;;;;2280507;60;1858;-88
2022/06/21 04:24:37;101854.00;0.34;176.77;0.00;0.00;0.62;;;;;18.60;1.00;;;;;;2280695;60;1038;-90
2022/06/21 04:27:12;76299.00;0.25;132.64;0.00;0.00;0.62;;;;;19.70;1.00;;;;;;2279841;60;1355;-88
2022/06/21 04:29:47;54348.00;0.18;94.71;0.00;0.00;0.62;;;;;20.10;1.00;;;;;;2276506;61;935;-87
2022/06/21 04:32:19;175380.00;0.58;303.53;0.00;0.00;0.62;;;;;20.20;1.00;;;;;;2276640;61;1982;-88
2022/06/21 04:34:52;143936.00;0.48;249.36;0.00;0.00;0.62;;;;;20.50;1.00;;;;;;2276714;61;1432;-87
2022/06/21 04:37:25;65414.00;0.22;113.83;0.00;0.00;0.62;;;;;20.90;1.00;;;;;;2276665;61;1750;-88
2022/06/21 04:39:58;226454.00;0.75;391.45;0.00;0.00;0.62;;;;;21.20;1.00;;;;;;2276507;61;1043;-87
2022/06/21 04:42:34;172668.00;0.58;298.86;0.00;0.00;0.62;;;;;21.20;1.00;;;;;;2276419;61;1644;-88
2022/06/21 04:45:09;330992.00;1.10;571.19;39789.00;0.13;69.52;;;;;21.30;1.00;;;;;;2276223;61;1297;-88
2022/06/21 04:47:43;871069.00;2.90;1505.36;119933.00;0.40;207.97;;;;;21.40;1.00;;;;;;2276395;61;2089;-88
2022/06/21 04:50:23;110624.00;0.37;191.91;0.00;0.00;0.62;;;;;21.50;1.00;;;;;;2276664;61;1033;-87
2022/06/21 04:52:57;189632.00;0.63;328.07;0.00;0.00;0.62;;;;;21.30;1.00;;;;;;2276653;61;1919;-87
2022/06/21 04:55:33;163263.00;0.54;282.66;0.00;0.00;0.62;;;;;21.00;1.00;;;;;;2276507;61;1118;-87
2022/06/21 04:58:00;47299.00;0.16;82.51;0.00;0.00;0.62;;;;;21.00;1.00;;;;;;2276670;61;1427;-88
2022/06/21 05:00:29;97859.00;0.33;169.88;0.00;0.00;0.62;;;;;21.40;1.00;;;;;;2276553;61;1541;-88
2022/06/21 05:03:02;134064.00;0.45;232.34;0.00;0.00;0.62;;;;;21.70;1.00;;;;;;2276528;61;1040;-86
2022/06/21 05:05:34;354655.00;1.18;611.86;0.00;0.00;0.62;;;;;21.90;1.00;;;;;;2276714;61;1111;-87
2022/06/21 05:08:05;304721.00;1.02;526.04;76366.00;0.25;132.76;;;;;22.10;1.00;;;;;;2276539;61;1477;-88
2022/06/21 05:10:36;1697.00;0.01;3.56;0.00;0.00;0.62;;;;;21.80;1.00;;;;;;2276486;61;1542;-89
2022/06/21 05:20:37;341988.00;1.14;590.09;0.00;0.00;0.62;;;;;22.60;1.00;;;;;;2282018;60;1402;-88
2022/06/21 05:25:38;391400.00;1.30;675.02;0.00;0.00;0.62;;;;;22.90;1.00;;;;;;2282199;60;1363;-89
2022/06/21 05:28:15;190868.00;0.64;330.20;0.00;0.00;0.62;;;;;22.90;1.00;;;;;;2278075;60;1471;-86
2022/06/21 05:33:21;167204.00;0.56;289.45;0.00;0.00;0.62;;;;;23.00;1.00;;;;;;2286047;60;1899;-88
2022/06/21 05:35:50;0.00;0.00;0.62;0.00;0.00;0.62;;;;;22.90;1.00;;;;;;2284535;60;1070;-88
2022/06/21 05:38:23;106287.00;0.35;184.42;0.00;0.00;0.62;;;;;23.00;1.00;;;;;;2289278;55;3723;-87
2022/06/21 05:45:54;307022.00;1.02;529.99;0.00;0.00;0.62;;;;;23.80;1.00;;;;;;2293419;55;3728;-88
2022/06/21 05:48:24;34427.00;0.11;60.25;0.00;0.00;0.62;;;;;24.30;1.00;;;;;;2277485;60;1520;-87
2022/06/21 05:50:53;0.00;0.00;0.62;0.00;0.00;0.62;;;;;24.30;1.00;;;;;;2279758;39;3585;-88
2022/06/21 05:53:28;244016.00;0.81;421.66;0.00;0.00;0.62;;;;;24.90;1.00;;;;;;2280365;60;1914;-87
2022/06/21 05:55:58;162920.00;0.54;282.07;0.00;0.00;0.62;;;;;25.50;1.00;;;;;;2280407;60;1589;-86
2022/06/21 05:58:30;107407.00;0.36;186.36;0.00;0.00;0.62;;;;;26.10;1.00;;;;;;2277331;60;1609;-88
2022/06/21 06:01:04;177441.00;0.59;307.08;0.00;0.00;0.62;;;;;27.20;1.00;;;;;;2276349;61;1101;-89
2022/06/21 06:03:38;90314.00;0.30;156.85;0.00;0.00;0.62;;;;;28.30;1.00;;;;;;2276274;61;1843;-88
2022/06/21 06:06:12;13673.00;0.05;24.31;0.00;0.00;0.62;;;;;29.50;1.00;;;;;;2276362;61;1092;-91
2022/06/21 06:08:43;136489.00;0.45;236.52;0.00;0.00;0.62;;;;;30.20;1.00;;;;;;2276324;61;1582;-88
2022/06/21 06:11:17;129492.00;0.43;224.45;0.00;0.00;0.62;;;;;30.80;1.00;;;;;;2276361;61;863;-90
2022/06/21 06:13:45;156923.00;0.52;271.74;0.00;0.00;0.62;;;;;31.00;1.00;;;;;;2276246;61;1908;-88
2022/06/21 06:16:29;105877.00;0.35;183.72;0.00;0.00;0.62;;;;;32.20;1.00;;;;;;2276388;61;1077;-87
2022/06/21 06:19:02;0.00;0.00;0.62;0.00;0.00;0.62;;;;;32.70;1.00;;;;;;2276413;61;1418;-88
2022/06/21 06:21:37;55548.00;0.19;96.78;0.00;0.00;0.62;;;;;33.20;1.00;;;;;;2276392;61;1775;-89
2022/06/21 06:24:12;140740.00;0.47;243.85;60031.00;0.20;104.53;;;;;32.70;1.00;;;;;;2276411;61;1048;-87
2022/06/21 06:26:42;0.00;0.00;0.62;0.00;0.00;0.62;;;;;33.40;1.00;;;;;;2276127;61;1025;-88
2022/06/21 06:29:20;0.00;0.00;0.62;0.00;0.00;0.62;;;;;33.00;1.00;;;;;;2276312;61;1136;-89
2022/06/21 06:31:52;64450.00;0.21;112.17;0.00;0.00;0.62;;;;;32.90;1.00;;;;;;2276264;61;1142;-89
2022/06/21 06:34:23;245819.00;0.82;424.76;97639.00;0.33;169.50;;;;;32.60;1.00;;;;;;2276231;61;2006;-87
2022/06/21 06:36:55;117634.00;0.39;204.00;0.00;0.00;0.62;;;;;32.30;1.00;;;;;;2276287;61;1479;-87
2022/06/21 06:39:26;272888.00;0.91;471.31;0.00;0.00;0.62;;;;;32.50;1.00;;;;;;2276373;61;1057;-90
2022/06/21 06:42:00;104221.00;0.35;180.86;0.00;0.00;0.62;;;;;32.50;1.00;;;;;;2276374;61;1065;-89
2022/06/21 06:44:29;210937.00;0.70;364.75;0.00;0.00;0.62;;;;;33.30;1.00;;;;;;2276379;61;1078;-90
2022/06/21 06:46:59;50190.00;0.17;87.51;0.00;0.00;0.62;;;;;33.80;1.00;;;;;;2276887;61;1691;-89
2022/06/21 06:49:33;0.00;0.00;0.62;0.00;0.00;0.62;;;;;33.20;1.00;;;;;;2277025;61;1013;-89
2022/06/21 06:52:10;34213.00;0.11;59.87;0.00;0.00;0.62;;;;;33.80;1.00;;;;;;2276890;61;1600;-89
2022/06/21 06:54:46;7084.00;0.02;12.90;0.00;0.00;0.62;;;;;34.00;1.00;;;;;;2277047;61;2003;-86
2022/06/21 06:57:21;169240.00;0.56;292.96;0.00;0.00;0.62;;;;;34.20;1.00;;;;;;2276470;61;1659;-88
2022/06/21 06:59:49;18012.00;0.06;31.83;0.00;0.00;0.62;;;;;33.80;1.00;;;;;;2276972;61;1435;-88
2022/06/21 07:02:25;132760.00;0.44;230.09;0.00;0.00;0.62;;;;;34.00;1.00;;;;;;2276977;61;994;-87
2022/06/21 07:05:02;0.00;0.00;0.62;0.00;0.00;0.62;;;;;33.70;1.00;;;;;;2277004;61;1086;-88
2022/06/21 07:07:40;0.00;0.00;0.62;0.00;0.00;0.62;;;;;34.30;1.00;;;;;;2276876;61;1470;-89
2022/06/21 07:10:14;42824.00;0.14;74.77;0.00;0.00;0.62;;;;;35.00;1.00;;;;;;2276951;61;1040;-89
2022/06/21 07:12:41;94066.00;0.31;163.33;0.00;0.00;0.62;;;;;35.10;1.00;;;;;;2276834;61;2239;-90
2022/06/21 07:15:11;0.00;0.00;0.62;0.00;0.00;0.62;;;;;35.30;1.00;;;;;;2276924;61;1044;-88
2022/06/21 07:17:42;47310.00;0.16;82.53;0.00;0.00;0.62;;;;;35.10;1.00;;;;;;2276866;61;1370;-88
2022/06/21 07:20:16;93020.00;0.31;161.52;0.00;0.00;0.62;;;;;34.20;1.00;;;;;;2276936;61;1994;-89
2022/06/21 07:22:45;119347.00;0.40;206.96;0.00;0.00;0.62;;;;;32.70;1.00;;;;;;2276911;61;2261;-89
2022/06/21 07:25:22;151724.00;0.51;262.78;12255.00;0.04;21.86;;;;;31.70;1.00;;;;;;2276983;61;1059;-88
2022/06/21 07:27:58;262448.00;0.87;453.36;0.00;0.00;0.62;;;;;30.50;1.00;;;;;;2276762;61;1489;-88
2022/06/21 07:30:38;0.00;0.00;0.62;0.00;0.00;0.62;;;;;30.10;1.00;;;;;;2276760;61;1501;-88
2022/06/21 07:33:11;0.00;0.00;0.62;0.00;0.00;0.62;;;;;29.20;1.00;;;;;;2276772;61;1912;-88
2022/06/21 07:35:45;28334.00;0.09;49.70;0.00;0.00;0.62;;;;;28.50;1.00;;;;;;2276729;61;1009;-88
2022/06/21 07:38:19;0.00;0.00;0.62;0.00;0.00;0.62;;;;;28.30;1.00;;;;;;2276768;61;1463;-88
2022/06/21 07:40:51;162123.00;0.54;280.70;38667.00;0.13;67.58;;;;;28.70;1.00;;;;;;2276895;61;1029;-88
2022/06/21 07:43:25;31663.00;0.11;55.46;0.00;0.00;0.62;;;;;28.50;1.00;;;;;;2276877;61;2161;-88
2022/06/21 07:45:55;30036.00;0.10;52.65;0.00;0.00;0.62;;;;;28.30;1.00;;;;;;2284798;39;3634;-88
2022/06/21 07:48:28;0.00;0.00;0.62;0.00;0.00;0.62;;;;;28.60;1.00;;;;;;2277858;60;1473;-89
2022/06/21 07:51:00;105623.00;0.35;183.28;0.00;0.00;0.62;;;;;28.50;1.00;;;;;;2276775;61;1123;-87
2022/06/21 07:53:35;56089.00;0.19;97.72;0.00;0.00;0.62;;;;;28.10;1.00;;;;;;2276605;61;1927;-89
2022/06/21 07:56:09;75087.00;0.25;130.55;0.00;0.00;0.62;;;;;29.60;1.00;;;;;;2276612;61;1035;-87
2022/06/21 07:58:43;41901.00;0.14;73.18;0.00;0.00;0.62;;;;;30.20;1.00;;;;;;2276673;61;1662;-87
2022/06/21 08:07:06;27238.00;0.09;47.80;0.00;0.00;0.62;;;;;32.20;1.00;;;;;;2276731;61;1344;-87
2022/06/21 08:09:43;0.00;0.00;0.62;0.00;0.00;0.62;;;;;30.90;1.00;;;;;;2276759;61;991;-87
2022/06/21 08:17:17;808318.00;2.69;1395.63;0.00;0.00;0.62;;;;;28.80;1.00;;;;;;2298021;56;3643;-88
2022/06/21 08:22:23;563124.00;1.88;970.59;0.00;0.00;0.62;;;;;28.30;1.00;;;;;;2275094;61;1348;-90
2022/06/21 08:24:57;53766.00;0.18;93.70;0.00;0.00;0.62;;;;;28.30;1.00;;;;;;2273196;61;1039;-90
2022/06/21 09:22:41;1217502.00;4.06;2121.90;54242.00;0.18;94.52;;;;;28.60;1.00;;;;;;1994979;40;3624;-88
2022/06/21 09:25:17;13832.00;0.05;24.59;0.00;0.00;0.62;;;;;28.90;1.00;;;;;;2280131;60;1030;-89
2022/06/21 09:50:37;989843.00;3.30;1714.49;0.00;0.00;0.62;;;;;29.10;1.00;;;;;;2287178;61;1026;-92
2022/06/21 09:58:13;1317625.00;4.39;2304.40;73117.00;0.24;127.15;;;;;29.40;1.00;;;;;;1970677;40;3440;-91
2022/06/21 10:25:55;823167.00;2.74;1421.56;0.00;0.00;0.62;;;;;27.60;1.00;;;;;;1993011;40;3480;-89
2022/06/21 10:36:15;1007295.00;3.36;1745.40;0.00;0.00;0.62;;;;;27.10;1.00;;;;;;2350680;40;3660;-87
2022/06/21 10:39:10;333453.00;1.11;575.42;7713.00;0.03;13.99;;;;;26.90;1.00;;;;;;2445537;40;3610;-88
2022/06/21 10:44:39;1328234.00;4.43;2323.87;60725.00;0.20;105.73;;;;;27.00;1.00;;;;;;1970755;40;3490;-89
2022/06/21 10:52:24;782474.00;2.61;1350.58;0.00;0.00;0.62;;;;;27.60;1.00;;;;;;823779;40;3474;-89
2022/06/21 10:57:33;784651.00;2.62;1354.37;0.00;0.00;0.62;;;;;27.90;1.00;;;;;;2160929;40;3509;-88
2022/06/21 11:28:02;799290.00;2.66;1379.89;0.00;0.00;0.62;;;;;28.10;1.00;;;;;;1578366;55;3550;-88
2022/06/21 11:33:08;218384.00;0.73;377.56;26658.00;0.09;46.80;;;;;28.80;1.00;;;;;;2274836;61;1337;-90
2022/06/21 11:40:50;613120.00;2.04;1056.88;0.00;0.00;0.62;;;;;28.20;1.00;;;;;;2283475;61;1300;-89
2022/06/21 11:48:55;413497.00;1.38;713.01;0.00;0.00;0.62;;;;;29.40;1.00;;;;;;2280283;61;1347;-90
2022/06/21 11:53:59;490236.00;1.63;845.02;12471.00;0.04;22.23;;;;;29.80;1.00;;;;;;2282668;60;1911;-89
2022/06/21 12:01:32;729978.00;2.43;1259.26;0.00;0.00;0.62;;;;;29.50;1.00;;;;;;831148;40;3777;-89
2022/06/21 12:06:39;778831.00;2.60;1344.23;0.00;0.00;0.62;;;;;29.10;1.00;;;;;;2291991;55;3802;-89
2022/06/21 12:29:13;1597218.00;5.32;2827.42;25798.00;0.09;45.31;;;;;29.40;1.00;;;;;;2289853;56;3630;-89
2022/06/21 12:31:47;912096.00;3.04;1577.37;5302.00;0.02;9.81;;;;;29.70;1.00;;;;;;2303444;56;3796;-90
2022/06/21 12:34:25;732548.00;2.44;1263.73;43374.00;0.14;75.73;;;;;29.70;1.00;;;;;;2280401;60;1981;-88
2022/06/21 12:39:29;448277.00;1.49;772.82;0.00;0.00;0.62;;;;;29.20;1.00;;;;;;2282181;60;1668;-87
2022/06/21 12:42:10;574229.00;1.91;989.74;0.00;0.00;0.62;;;;;29.30;1.00;;;;;;2280449;60;1038;-86
2022/06/21 12:44:53;200487.00;0.67;346.76;0.00;0.00;0.62;;;;;29.00;1.00;;;;;;2280351;60;1007;-88
2022/06/21 12:47:36;333419.00;1.11;575.36;0.00;0.00;0.62;;;;;28.90;1.00;;;;;;2279576;60;1343;-88
2022/06/21 12:50:36;194149.00;0.65;335.85;0.00;0.00;0.62;;;;;29.30;1.00;;;;;;2276556;61;1653;-87
2022/06/21 12:53:18;255236.00;0.85;440.96;65435.00;0.22;113.87;;;;;29.00;1.00;;;;;;2276481;61;1604;-88
2022/06/21 12:55:55;232629.00;0.78;402.07;36930.00;0.12;64.58;;;;;29.00;1.00;;;;;;2279622;55;3648;-88
2022/06/21 12:58:52;135175.00;0.45;234.25;0.00;0.00;0.62;;;;;29.00;1.00;;;;;;2277893;61;1670;-89
2022/06/21 13:14:08;612382.00;2.04;1055.60;50846.00;0.17;88.65;;;;;29.30;1.00;;;;;;2303653;55;3749;-89
2022/06/21 13:27:04;710376.00;2.37;1225.24;0.00;0.00;0.62;;;;;28.70;1.00;;;;;;2281783;61;1222;-91
2022/06/21 13:32:14;851077.00;2.84;1470.35;0.00;0.00;0.62;;;;;28.90;1.00;;;;;;1564502;40;3439;-88
2022/06/21 13:34:47;132278.00;0.44;229.26;0.00;0.00;0.62;;;;;28.80;1.00;;;;;;2293470;40;3805;-86
2022/06/21 13:49:46;818806.00;2.73;1413.94;0.00;0.00;0.62;;;;;28.80;1.00;;;;;;2281799;60;1470;-88
2022/06/21 13:52:21;196677.00;0.66;340.20;0.00;0.00;0.62;;;;;28.40;1.00;;;;;;2280237;60;1187;-86
2022/06/21 13:54:54;110422.00;0.37;191.56;0.00;0.00;0.62;;;;;28.90;1.00;;;;;;2284601;55;3768;-88
2022/06/21 13:57:46;120636.00;0.40;209.18;39625.00;0.13;69.24;;;;;29.00;1.00;;;;;;2279341;60;1394;-88
2022/06/21 14:00:17;193297.00;0.64;334.38;0.00;0.00;0.62;;;;;29.00;1.00;;;;;;2276228;61;1553;-87
2022/06/21 14:02:52;399976.00;1.33;689.76;38842.00;0.13;67.88;;;;;29.00;1.00;;;;;;2288092;40;3598;-87
2022/06/21 14:10:27;570874.00;1.90;983.95;0.00;0.00;0.62;;;;;29.00;1.00;;;;;;2278642;61;1128;-89
2022/06/21 14:18:00;1389373.00;4.63;2436.63;7990.00;0.03;14.47;;;;;28.60;1.00;;;;;;2280154;60;1425;-86
2022/06/21 14:23:06;1027702.00;3.43;1781.60;33303.00;0.11;58.30;;;;;28.80;1.00;;;;;;2281717;60;1419;-88
2022/06/21 14:25:41;1051299.00;3.50;1823.54;161462.00;0.54;279.56;;;;;28.80;1.00;;;;;;2280010;60;1028;-87
2022/06/21 14:33:17;1053186.00;3.51;1826.90;71890.00;0.24;125.03;;;;;29.80;1.00;;;;;;2289311;55;3730;-88
2022/06/21 14:41:12;604485.00;2.01;1041.96;61102.00;0.20;106.38;;;;;29.40;1.00;;;;;;2325849;40;3490;-90
2022/06/21 14:43:47;1703351.00;5.68;3031.94;76956.00;0.26;133.78;;;;;29.60;1.00;;;;;;2281624;60;1198;-89
2022/06/21 14:46:23;674367.00;2.25;1162.82;51723.00;0.17;90.17;;;;;29.70;1.00;;;;;;2282055;55;3818;-89
2022/06/21 14:54:07;629116.00;2.10;1084.52;67307.00;0.22;117.11;;;;;29.80;1.00;;;;;;2269971;61;1437;-88
2022/06/21 14:56:54;555664.00;1.85;957.72;0.00;0.00;0.62;;;;;29.90;1.00;;;;;;2286902;56;3795;-88
2022/06/21 15:01:53;558249.00;1.86;962.18;52249.00;0.17;91.08;;;;;29.50;1.00;;;;;;2277943;61;1408;-89
2022/06/21 15:04:31;144587.00;0.48;250.48;0.00;0.00;0.62;;;;;29.40;1.00;;;;;;2276156;61;1680;-87
2022/06/21 15:07:22;109544.00;0.37;190.04;0.00;0.00;0.62;;;;;29.30;1.00;;;;;;2276239;61;1454;-89
2022/06/21 15:09:56;25138.00;0.08;44.17;0.00;0.00;0.62;;;;;29.50;1.00;;;;;;2272773;61;951;-88
2022/06/21 15:14:58;1084723.00;3.62;1883.12;0.00;0.00;0.62;;;;;29.40;1.00;;;;;;2274462;61;1970;-88
2022/06/21 15:17:35;40540.00;0.14;70.82;0.00;0.00;0.62;;;;;29.50;1.00;;;;;;2272668;61;1674;-88
2022/06/21 15:22:45;286001.00;0.95;493.85;0.00;0.00;0.62;;;;;29.50;1.00;;;;;;2274445;61;1388;-86
2022/06/21 15:25:28;102274.00;0.34;177.50;0.00;0.00;0.62;;;;;29.30;1.00;;;;;;2272724;61;1114;-88
2022/06/21 15:28:05;155683.00;0.52;269.60;0.00;0.00;0.62;;;;;29.60;1.00;;;;;;2272784;61;1453;-89
2022/06/21 15:30:52;167399.00;0.56;289.79;0.00;0.00;0.62;;;;;29.60;1.00;;;;;;2281194;55;3926;-87
2022/06/21 15:33:27;540705.00;1.80;931.94;58915.00;0.20;102.60;;;;;29.60;1.00;;;;;;2295183;56;3791;-87
2022/06/21 15:36:06;426530.00;1.42;735.42;54055.00;0.18;94.20;;;;;29.80;1.00;;;;;;2280870;60;1982;-90
2022/06/21 15:38:56;190606.00;0.64;329.75;58987.00;0.20;102.73;;;;;30.00;1.00;;;;;;2285440;55;3784;-88
2022/06/21 15:41:31;864730.00;2.88;1494.26;113446.00;0.38;196.78;;;;;30.00;1.00;;;;;;2280768;60;1164;-88
2022/06/21 15:46:33;616404.00;2.05;1062.55;59027.00;0.20;102.79;;;;;30.60;1.00;;;;;;2274763;61;1390;-88
2022/06/21 15:54:34;335955.00;1.12;579.72;0.00;0.00;0.62;;;;;29.50;1.00;;;;;;2278366;61;1968;-88
2022/06/21 15:57:12;188270.00;0.63;325.73;14382.00;0.05;25.54;;;;;29.40;1.00;;;;;;2276194;61;1305;-87
2022/06/21 15:59:48;275945.00;0.92;476.57;0.00;0.00;0.62;;;;;29.40;1.00;;;;;;2272715;61;1470;-89
2022/06/21 16:02:26;106174.00;0.35;184.23;0.00;0.00;0.62;;;;;29.80;1.00;;;;;;2272676;61;1007;-87
2022/06/21 16:05:16;50892.00;0.17;88.73;0.00;0.00;0.62;;;;;30.00;1.00;;;;;;2272677;61;1069;-87
2022/06/21 16:10:24;553215.00;1.84;953.50;0.00;0.00;0.62;;;;;29.80;1.00;;;;;;2274394;61;1419;-88
2022/06/21 16:17:52;622198.00;2.07;1072.56;0.00;0.00;0.62;;;;;30.00;1.00;;;;;;2280602;60;1383;-88
2022/06/21 16:20:30;265308.00;0.88;458.28;67531.00;0.23;117.49;;;;;29.60;1.00;;;;;;2282594;39;3612;-88
2022/06/21 16:23:08;416042.00;1.39;717.39;99228.00;0.33;172.24;;;;;29.30;1.00;;;;;;2280492;60;997;-89
2022/06/21 16:25:41;378067.00;1.26;652.10;55201.00;0.18;96.18;;;;;29.40;1.00;;;;;;2280578;60;1512;-88
2022/06/21 16:28:14;479421.00;1.60;826.40;163352.00;0.54;282.81;;;;;29.50;1.00;;;;;;2278401;60;1464;-89
2022/06/21 16:30:49;221261.00;0.74;382.51;81981.00;0.27;142.46;;;;;29.40;1.00;;;;;;2276680;61;1102;-90
2022/06/21 16:33:25;447876.00;1.49;772.13;134688.00;0.45;233.41;;;;;29.40;1.00;;;;;;2276706;61;1128;-90
2022/06/21 16:35:57;228315.00;0.76;394.65;42482.00;0.14;74.18;;;;;29.60;1.00;;;;;;2276294;61;2000;-86
2022/06/21 16:43:54;289600.00;0.97;500.04;65112.00;0.22;113.31;;;;;29.90;1.00;;;;;;2280778;60;676;-88
2022/06/21 16:46:32;0.00;0.00;0.62;0.00;0.00;0.62;;;;;29.80;1.00;;;;;;2280604;60;1041;-88
2022/06/21 16:49:10;261959.00;0.87;452.52;63312.00;0.21;110.20;;;;;29.50;1.00;;;;;;2276791;61;1412;-89
2022/06/21 16:51:42;188636.00;0.63;326.36;58566.00;0.20;102.00;;;;;29.80;1.00;;;;;;2276639;61;948;-89
2022/06/21 16:54:25;226174.00;0.75;390.97;62863.00;0.21;109.43;;;;;29.70;1.00;;;;;;2283247;55;3789;-89
2022/06/21 16:56:52;329972.00;1.10;569.44;57057.00;0.19;99.39;;;;;29.40;1.00;;;;;;2280288;60;1932;-87
2022/06/21 16:59:22;319948.00;1.07;552.21;64476.00;0.21;112.21;;;;;29.40;1.00;;;;;;2276310;61;975;-86
2022/06/21 17:01:51;285929.00;0.95;493.73;65376.00;0.22;113.77;;;;;29.20;1.00;;;;;;2276532;61;1127;-86
2022/06/21 17:04:23;235123.00;0.78;406.36;61083.00;0.20;106.35;;;;;29.10;1.00;;;;;;2276550;61;960;-88
2022/06/21 17:06:53;419756.00;1.40;723.77;53917.00;0.18;93.96;;;;;29.30;1.00;;;;;;2276408;61;1394;-87
2022/06/21 17:09:24;143447.00;0.48;248.51;0.00;0.00;0.62;;;;;29.10;1.00;;;;;;2276394;61;1068;-86
2022/06/21 17:12:01;312743.00;1.04;539.82;17198.00;0.06;30.42;;;;;29.30;1.00;;;;;;2276321;61;1114;-86
2022/06/21 17:14:58;0.00;0.00;0.62;0.00;0.00;0.62;;;;;29.10;1.00;;;;;;2279736;55;3777;-87
2022/06/21 17:17:34;324855.00;1.08;560.64;105047.00;0.35;182.28;;;;;29.20;1.00;;;;;;2279191;60;1253;-86
2022/06/21 17:20:13;297092.00;0.99;512.92;63908.00;0.21;111.23;;;;;29.20;1.00;;;;;;2276382;61;1080;-86
2022/06/21 17:22:48;304147.00;1.01;525.05;64918.00;0.22;112.98;;;;;29.20;1.00;;;;;;2276510;61;1092;-86
2022/06/21 17:25:19;267209.00;0.89;461.54;62525.00;0.21;108.84;;;;;29.20;1.00;;;;;;2276428;61;1091;-86
2022/06/21 17:28:01;153203.00;0.51;265.33;0.00;0.00;0.62;;;;;29.20;1.00;;;;;;2275959;61;1465;-86
2022/06/21 17:30:35;266823.00;0.89;460.88;95951.00;0.32;166.58;;;;;29.00;1.00;;;;;;2276374;61;1152;-85
2022/06/21 17:33:10;331919.00;1.11;572.78;56611.00;0.19;98.62;;;;;28.80;1.00;;;;;;2276190;61;1135;-87
2022/06/21 17:35:44;337140.00;1.12;581.76;57751.00;0.19;100.59;;;;;28.90;1.00;;;;;;2276239;61;2014;-87